sensor_id;sensor_type;location;lat;lon;timestamp;P1;durP1;ratioP1;P2;durP2;ratioP2
18473;SDS011;30265;52.408;13.500;2023-06-14T00:10:37;4.45;;;3.00;;
18473;SDS011;30265;52.408;13.500;2023-06-14T00:21:00;5.32;;;3.05;;
18473;SDS011;30265;52.408;13.500;2023-06-14T00:31:24;7.88;;;3.53;;
18473;SDS011;30265;52.408;13.500;2023-06-14T00:41:46;8.32;;;4.00;;
18473;SDS011;30265;52.408;13.500;2023-06-14T00:52:15;5.05;;;3.70;;
18473;SDS011;30265;52.408;13.500;2023-06-14T01:02:38;7.53;;;3.90;;
18473;SDS011;30265;52.408;13.500;2023-06-14T01:13:05;7.28;;;3.97;;
18473;SDS011;30265;52.408;13.500;2023-06-14T01:23:33;8.10;;;4.22;;
18473;SDS011;30265;52.408;13.500;2023-06-14T01:33:55;11.38;;;4.32;;
18473;SDS011;30265;52.408;13.500;2023-06-14T01:44:18;7.10;;;4.68;;
18473;SDS011;30265;52.408;13.500;2023-06-14T01:54:41;9.55;;;5.20;;
18473;SDS011;30265;52.408;13.500;2023-06-14T02:05:04;6.28;;;4.38;;
18473;SDS011;30265;52.408;13.500;2023-06-14T02:15:26;8.43;;;5.32;;
18473;SDS011;30265;52.408;13.500;2023-06-14T02:25:55;9.05;;;6.00;;
18473;SDS011;30265;52.408;13.500;2023-06-14T02:36:17;10.93;;;5.50;;
18473;SDS011;30265;52.408;13.500;2023-06-14T02:46:40;7.93;;;5.43;;
18473;SDS011;30265;52.408;13.500;2023-06-14T02:57:03;9.05;;;4.97;;
18473;SDS011;30265;52.408;13.500;2023-06-14T03:07:30;11.10;;;5.70;;
18473;SDS011;30265;52.408;13.500;2023-06-14T03:17:53;15.07;;;6.20;;
18473;SDS011;30265;52.408;13.500;2023-06-14T03:28:16;14.05;;;6.40;;
18473;SDS011;30265;52.408;13.500;2023-06-14T03:38:38;11.20;;;6.57;;
18473;SDS011;30265;52.408;13.500;2023-06-14T03:49:02;12.13;;;6.80;;
18473;SDS011;30265;52.408;13.500;2023-06-14T03:59:24;10.45;;;6.50;;
18473;SDS011;30265;52.408;13.500;2023-06-14T04:09:48;13.45;;;6.90;;
18473;SDS011;30265;52.408;13.500;2023-06-14T04:20:11;11.80;;;6.72;;
18473;SDS011;30265;52.408;13.500;2023-06-14T04:30:35;10.27;;;6.35;;
18473;SDS011;30265;52.408;13.500;2023-06-14T04:40:59;9.63;;;6.38;;
18473;SDS011;30265;52.408;13.500;2023-06-14T04:51:23;13.65;;;6.82;;
18473;SDS011;30265;52.408;13.500;2023-06-14T05:01:50;10.27;;;6.32;;
18473;SDS011;30265;52.408;13.500;2023-06-14T05:12:16;10.23;;;6.13;;
18473;SDS011;30265;52.408;13.500;2023-06-14T05:22:39;14.50;;;6.90;;
18473;SDS011;30265;52.408;13.500;2023-06-14T05:33:02;11.65;;;6.70;;
18473;SDS011;30265;52.408;13.500;2023-06-14T05:43:24;11.85;;;7.20;;
18473;SDS011;30265;52.408;13.500;2023-06-14T05:53:47;13.90;;;7.38;;
18473;SDS011;30265;52.408;13.500;2023-06-14T06:04:10;10.95;;;7.20;;
18473;SDS011;30265;52.408;13.500;2023-06-14T06:14:33;11.38;;;7.32;;
18473;SDS011;30265;52.408;13.500;2023-06-14T06:24:54;12.07;;;7.40;;
18473;SDS011;30265;52.408;13.500;2023-06-14T06:35:17;10.68;;;6.22;;
18473;SDS011;30265;52.408;13.500;2023-06-14T06:45:38;10.90;;;6.32;;
18473;SDS011;30265;52.408;13.500;2023-06-14T06:56:01;13.10;;;7.55;;
18473;SDS011;30265;52.408;13.500;2023-06-14T07:06:27;13.45;;;6.90;;
18473;SDS011;30265;52.408;13.500;2023-06-14T07:16:57;13.25;;;7.10;;
18473;SDS011;30265;52.408;13.500;2023-06-14T07:27:19;10.00;;;6.40;;
18473;SDS011;30265;52.408;13.500;2023-06-14T07:37:42;10.48;;;5.53;;
18473;SDS011;30265;52.408;13.500;2023-06-14T07:48:04;10.77;;;6.57;;
18473;SDS011;30265;52.408;13.500;2023-06-14T07:58:28;11.80;;;5.90;;
18473;SDS011;30265;52.408;13.500;2023-06-14T08:08:50;6.57;;;4.38;;
18473;SDS011;30265;52.408;13.500;2023-06-14T08:19:13;12.50;;;5.40;;
18473;SDS011;30265;52.408;13.500;2023-06-14T08:40:01;12.10;;;4.45;;
18473;SDS011;30265;52.408;13.500;2023-06-14T08:50:26;6.47;;;4.32;;
18473;SDS011;30265;52.408;13.500;2023-06-14T09:00:53;9.27;;;4.07;;
18473;SDS011;30265;52.408;13.500;2023-06-14T09:11:16;6.30;;;3.67;;
18473;SDS011;30265;52.408;13.500;2023-06-14T09:21:40;8.98;;;3.50;;
18473;SDS011;30265;52.408;13.500;2023-06-14T09:32:02;8.38;;;3.80;;
18473;SDS011;30265;52.408;13.500;2023-06-14T09:42:26;6.13;;;3.83;;
18473;SDS011;30265;52.408;13.500;2023-06-14T09:52:48;24.50;;;5.10;;
18473;SDS011;30265;52.408;13.500;2023-06-14T10:03:16;8.45;;;3.88;;
18473;SDS011;30265;52.408;13.500;2023-06-14T10:13:45;6.72;;;3.85;;
18473;SDS011;30265;52.408;13.500;2023-06-14T10:24:10;7.93;;;4.20;;
18473;SDS011;30265;52.408;13.500;2023-06-14T10:34:38;8.85;;;4.00;;
18473;SDS011;30265;52.408;13.500;2023-06-14T10:45:01;5.60;;;4.13;;
18473;SDS011;30265;52.408;13.500;2023-06-14T10:55:22;6.68;;;3.97;;
18473;SDS011;30265;52.408;13.500;2023-06-14T11:05:52;6.70;;;3.97;;
18473;SDS011;30265;52.408;13.500;2023-06-14T11:16:16;8.43;;;4.75;;
18473;SDS011;30265;52.408;13.500;2023-06-14T11:26:40;10.68;;;4.05;;
18473;SDS011;30265;52.408;13.500;2023-06-14T11:37:02;13.97;;;4.23;;
18473;SDS011;30265;52.408;13.500;2023-06-14T11:47:32;6.07;;;3.77;;
18473;SDS011;30265;52.408;13.500;2023-06-14T11:57:54;7.55;;;4.10;;
18473;SDS011;30265;52.408;13.500;2023-06-14T12:08:18;8.23;;;4.07;;
18473;SDS011;30265;52.408;13.500;2023-06-14T12:18:43;8.48;;;4.10;;
18473;SDS011;30265;52.408;13.500;2023-06-14T12:29:07;9.63;;;4.07;;
18473;SDS011;30265;52.408;13.500;2023-06-14T12:39:29;9.75;;;3.95;;
18473;SDS011;30265;52.408;13.500;2023-06-14T12:49:52;10.90;;;4.37;;
18473;SDS011;30265;52.408;13.500;2023-06-14T13:00:15;7.05;;;3.80;;
18473;SDS011;30265;52.408;13.500;2023-06-14T13:10:39;9.98;;;4.20;;
18473;SDS011;30265;52.408;13.500;2023-06-14T13:21:01;6.20;;;4.00;;
18473;SDS011;30265;52.408;13.500;2023-06-14T13:31:24;10.45;;;4.03;;
18473;SDS011;30265;52.408;13.500;2023-06-14T13:41:46;7.13;;;4.25;;
18473;SDS011;30265;52.408;13.500;2023-06-14T13:52:10;8.25;;;4.00;;
18473;SDS011;30265;52.408;13.500;2023-06-14T14:02:51;8.02;;;3.97;;
18473;SDS011;30265;52.408;13.500;2023-06-14T14:13:33;7.60;;;4.20;;
18473;SDS011;30265;52.408;13.500;2023-06-14T14:24:14;5.53;;;3.65;;
18473;SDS011;30265;52.408;13.500;2023-06-14T14:34:54;10.82;;;3.88;;
18473;SDS011;30265;52.408;13.500;2023-06-14T14:45:17;7.18;;;3.40;;
18473;SDS011;30265;52.408;13.500;2023-06-14T14:55:40;10.63;;;3.90;;
18473;SDS011;30265;52.408;13.500;2023-06-14T15:06:03;14.25;;;3.92;;
18473;SDS011;30265;52.408;13.500;2023-06-14T15:16:27;8.13;;;3.50;;
18473;SDS011;30265;52.408;13.500;2023-06-14T15:26:49;10.05;;;4.03;;
18473;SDS011;30265;52.408;13.500;2023-06-14T15:37:13;7.30;;;3.67;;
18473;SDS011;30265;52.408;13.500;2023-06-14T15:47:34;9.30;;;3.87;;
18473;SDS011;30265;52.408;13.500;2023-06-14T15:57:57;7.90;;;3.92;;
18473;SDS011;30265;52.408;13.500;2023-06-14T16:08:19;9.40;;;4.93;;
18473;SDS011;30265;52.408;13.500;2023-06-14T16:19:01;9.65;;;3.92;;
18473;SDS011;30265;52.408;13.500;2023-06-14T16:29:24;7.45;;;3.28;;
18473;SDS011;30265;52.408;13.500;2023-06-14T16:39:48;9.52;;;3.80;;
18473;SDS011;30265;52.408;13.500;2023-06-14T16:50:10;8.85;;;3.38;;
18473;SDS011;30265;52.408;13.500;2023-06-14T17:00:33;7.90;;;3.78;;
18473;SDS011;30265;52.408;13.500;2023-06-14T17:10:55;9.25;;;4.35;;
18473;SDS011;30265;52.408;13.500;2023-06-14T17:21:18;11.25;;;3.95;;
18473;SDS011;30265;52.408;13.500;2023-06-14T17:31:40;8.23;;;3.90;;
18473;SDS011;30265;52.408;13.500;2023-06-14T17:42:03;9.32;;;3.92;;
18473;SDS011;30265;52.408;13.500;2023-06-14T17:52:26;10.10;;;3.83;;
18473;SDS011;30265;52.408;13.500;2023-06-14T18:02:50;8.35;;;3.42;;
18473;SDS011;30265;52.408;13.500;2023-06-14T18:13:12;10.48;;;3.80;;
18473;SDS011;30265;52.408;13.500;2023-06-14T18:23:35;7.38;;;3.70;;
18473;SDS011;30265;52.408;13.500;2023-06-14T18:33:57;6.57;;;3.63;;
18473;SDS011;30265;52.408;13.500;2023-06-14T18:44:29;9.75;;;4.55;;
18473;SDS011;30265;52.408;13.500;2023-06-14T18:54:51;7.88;;;3.90;;
18473;SDS011;30265;52.408;13.500;2023-06-14T19:05:15;10.15;;;4.15;;
18473;SDS011;30265;52.408;13.500;2023-06-14T19:15:40;8.93;;;3.83;;
18473;SDS011;30265;52.408;13.500;2023-06-14T19:26:03;5.82;;;3.67;;
18473;SDS011;30265;52.408;13.500;2023-06-14T19:36:25;7.28;;;3.90;;
18473;SDS011;30265;52.408;13.500;2023-06-14T19:46:48;9.57;;;4.05;;
18473;SDS011;30265;52.408;13.500;2023-06-14T19:57:10;16.70;;;4.40;;
18473;SDS011;30265;52.408;13.500;2023-06-14T20:07:33;8.80;;;3.83;;
18473;SDS011;30265;52.408;13.500;2023-06-14T20:17:56;6.87;;;4.00;;
18473;SDS011;30265;52.408;13.500;2023-06-14T20:28:19;6.63;;;4.03;;
18473;SDS011;30265;52.408;13.500;2023-06-14T20:38:40;10.20;;;4.03;;
18473;SDS011;30265;52.408;13.500;2023-06-14T20:49:04;9.23;;;4.25;;
18473;SDS011;30265;52.408;13.500;2023-06-14T20:59:28;9.52;;;3.75;;
18473;SDS011;30265;52.408;13.500;2023-06-14T21:09:51;12.20;;;4.00;;
18473;SDS011;30265;52.408;13.500;2023-06-14T21:20:13;10.32;;;4.38;;
18473;SDS011;30265;52.408;13.500;2023-06-14T21:30:37;8.15;;;3.67;;
18473;SDS011;30265;52.408;13.500;2023-06-14T21:40:59;9.52;;;3.70;;
18473;SDS011;30265;52.408;13.500;2023-06-14T21:51:23;7.65;;;3.90;;
18473;SDS011;30265;52.408;13.500;2023-06-14T22:01:45;11.85;;;4.28;;
18473;SDS011;30265;52.408;13.500;2023-06-14T22:12:08;9.27;;;3.47;;
18473;SDS011;30265;52.408;13.500;2023-06-14T22:22:34;7.95;;;3.65;;
18473;SDS011;30265;52.408;13.500;2023-06-14T22:32:59;8.82;;;3.83;;
18473;SDS011;30265;52.408;13.500;2023-06-14T22:43:23;10.13;;;4.07;;
18473;SDS011;30265;52.408;13.500;2023-06-14T22:53:46;6.60;;;3.60;;
18473;SDS011;30265;52.408;13.500;2023-06-14T23:04:09;8.93;;;4.00;;
18473;SDS011;30265;52.408;13.500;2023-06-14T23:14:33;5.35;;;3.70;;
18473;SDS011;30265;52.408;13.500;2023-06-14T23:24:57;7.15;;;4.15;;
18473;SDS011;30265;52.408;13.500;2023-06-14T23:35:20;8.88;;;3.80;;
18473;SDS011;30265;52.408;13.500;2023-06-14T23:45:43;9.38;;;4.00;;
18473;SDS011;30265;52.408;13.500;2023-06-14T23:56:07;7.28;;;4.00;;
